Columbine Hills, CO (80128)

11:09 PM MDT on August 30, 2015 (GMT -0600)
Simms and Bowles | | Change Station
CLOSE
Current Station
Personal Weather Station
Location: Littleton, CO
Elevation: 5830 ft
Nearby Weather Stations

Elev 5830 ft 39.61 °N, 105.13 °W | Updated 4 seconds ago

Mostly Cloudy
Mostly Cloudy
76.8 °F
Feels Like 78 °F
N
0.0
Wind Variable Wind from NW
Gusts 5.0 mph

Today
High -- | Low -- °F
--% Chance of Precip.
Yesterday
High -- | Low -- °F
Precip. -- in
6:26 AM 7:34 PM
Full, 97% visible
Pressure 29.78 in
Visibility 10.0 miles
Clouds Mostly Cloudy 10000 ft
Mostly Cloudy 22000 ft
Heat Index 78 °F
Dew Point 43 °F
Humidity 30%
Rainfall 0.00 in
Snow Depth Not available.
UV 0 out of 12
Pollen 10.60 out of 12
Air Quality Not available.
Flu Activity Not available.
METAR KAPA 310453Z 24008KT 10SM BKN100 BKN220 24/06 A3004 RMK AO2 SLP082 T02390061
Pressure 29.78 in
Visibility 10.0 miles
Clouds Mostly Cloudy 10000 ft
Mostly Cloudy 22000 ft
Heat Index 78 °F
Dew Point 43 °F
Humidity 30%
Rainfall 0.00 in
Snow Depth Not available.
UV 0 out of 12
Pollen 10.60 out of 12
Air Quality Not available.
Flu Activity Not available.
METAR KAPA 310453Z 24008KT 10SM BKN100 BKN220 24/06 A3004 RMK AO2 SLP082 T02390061

10-Day Weather Forecast

×

Almanac

Astronomy

Aug. 30, 2015 Rise Set
Actual Time
Civil Twilight
Nautical Twilight
Astronomical Twilight
Moon
Length of Visible Light
Length of Day
Tomorrow will be .
, % of the Moon is Illuminated

Today's Extremes

State Highs State Lows

Community

WunderPhotos

Upload Photos

1,851,210 photos uploaded!

WunderBlogs® & News

Nearby

Air Quality

  Air Quality AQ Index Pollutant
Not available.

Snow Depth

Station Depth Elevation

Earthquake Activity

City Distance Mag. Time & Date
Minimum magnitude displayed is 2.5.

Coastal Water Temperatures

Place Temperature

Stations

Nearby Weather Stations

Station Location Temp. Windchill Dew Point Humidity Wind Precip. Elev Updated Type